Time,TemperatureF,DewpointF,PressureIn,WindDirection,WindDirectionDegrees,WindSpeedMPH,WindSpeedGustMPH,Humidity,HourlyPrecipIn,Conditions,Clouds,dailyrainin,SolarRadiationWatts/m^2,SoftwareType,DateUTC
2013-04-03 06:22:00,68.8,65.1,30.01,ENE,68,1.0,4.0,88,0.00,,---,0.00,0.00,VWS V14.01,2013-04-03 10:22:00,
2013-04-03 06:33:00,69.3,64.9,30.02,ENE,74,0.0,3.0,86,0.00,,---,0.00,0.00,VWS V14.01,2013-04-03 10:33:00,
2013-04-03 07:03:00,69.2,65.5,30.03,ENE,74,0.0,0.0,88,0.00,,---,0.00,0.00,VWS V14.01,2013-04-03 11:03:00,
2013-04-03 07:33:00,69.5,66.4,30.03,ENE,74,0.0,1.0,90,0.00,,---,0.00,11.00,VWS V14.01,2013-04-03 11:33:00,
2013-04-03 08:03:00,70.3,67.6,30.04,ENE,74,0.0,3.0,91,0.00,,---,0.00,53.00,VWS V14.01,2013-04-03 12:03:00,
2013-04-03 08:33:00,73.2,68.8,30.05,ESE,105,5.0,11.0,86,0.00,,---,0.00,200.00,VWS V14.01,2013-04-03 12:33:00,
2013-04-03 09:03:00,75.4,69.2,30.05,SE,130,4.0,10.0,81,0.00,,---,0.00,301.00,VWS V14.01,2013-04-03 13:03:00,
2013-04-03 09:33:00,76.9,69.2,30.05,ESE,121,6.0,13.0,77,0.00,,---,0.00,403.00,VWS V14.01,2013-04-03 13:33:00,
2013-04-03 10:03:00,77.8,68.1,30.05,East,99,6.0,13.0,72,0.00,,---,0.00,538.00,VWS V14.01,2013-04-03 14:03:00,
2013-04-03 10:33:00,77.9,68.6,30.05,SE,136,4.0,12.0,73,0.00,,---,0.00,232.00,VWS V14.01,2013-04-03 14:33:00,
2013-04-03 11:03:00,78.2,68.4,30.04,ESE,117,3.0,15.0,72,0.00,,---,0.00,721.00,VWS V14.01,2013-04-03 15:03:00,
2013-04-03 11:33:00,80.6,68.6,30.05,ESE,115,4.0,13.0,67,0.00,,---,0.00,775.00,VWS V14.01,2013-04-03 15:33:00,
2013-04-03 12:03:00,81.7,68.8,30.04,ESE,115,9.0,13.0,65,0.00,,---,0.00,840.00,VWS V14.01,2013-04-03 16:03:00,
2013-04-03 12:33:00,82.7,68.4,30.02,ESE,109,12.0,16.0,62,0.00,,---,0.00,853.00,VWS V14.01,2013-04-03 16:33:00,
2013-04-03 13:03:00,82.7,69.8,30.01,East,92,11.0,17.0,65,0.00,,---,0.00,888.00,VWS V14.01,2013-04-03 17:03:00,
2013-04-03 14:03:00,80.5,69.4,30.01,East,82,8.0,18.0,69,0.00,,---,0.00,392.00,VWS V14.01,2013-04-03 18:03:00,
2013-04-03 14:33:00,80.9,70.2,30.00,East,89,12.0,17.0,70,0.00,,---,0.00,812.00,VWS V14.01,2013-04-03 18:33:00,
2013-04-03 15:03:00,81.0,69.9,30.00,ESE,110,5.0,15.0,69,0.00,,---,0.00,729.00,VWS V14.01,2013-04-03 19:03:00,
2013-04-03 15:33:00,80.5,71.1,30.00,East,89,0.0,15.0,73,0.00,,---,0.00,729.00,VWS V14.01,2013-04-03 19:33:00,
2013-04-03 16:03:00,78.8,70.2,29.99,East,91,10.0,13.0,75,0.00,,---,0.00,513.00,VWS V14.01,2013-04-03 20:03:00,
2013-04-03 16:33:00,79.0,71.2,29.98,ESE,114,5.0,15.0,77,0.00,,---,0.00,346.00,VWS V14.01,2013-04-03 20:33:00,
2013-04-03 17:03:00,77.6,70.9,29.98,ESE,115,6.0,17.0,80,0.00,,---,0.00,155.00,VWS V14.01,2013-04-03 21:03:00,
2013-04-03 17:33:00,76.8,70.5,29.99,ESE,111,4.0,11.0,81,0.00,,---,0.00,107.00,VWS V14.01,2013-04-03 21:33:00,
2013-04-03 18:03:00,76.4,69.8,29.99,ESE,108,4.0,12.0,80,0.00,,---,0.00,93.00,VWS V14.01,2013-04-03 22:03:00,
2013-04-03 18:33:00,75.9,69.7,29.98,ESE,105,6.0,12.0,81,0.00,,---,0.00,56.00,VWS V14.01,2013-04-03 22:33:00,
2013-04-03 19:03:00,75.3,69.4,29.98,SE,127,4.0,13.0,82,0.00,,---,0.00,23.00,VWS V14.01,2013-04-03 23:03:00,
2013-04-03 19:33:00,74.8,69.3,29.97,ESE,107,5.0,17.0,83,0.00,,---,0.00,0.00,VWS V14.01,2013-04-03 23:33:00,
2013-04-03 20:03:00,74.5,69.7,29.98,ESE,109,5.0,12.0,85,0.00,,---,0.00,0.00,VWS V14.01,2013-04-04 00:03:00,
2013-04-03 20:33:00,74.3,69.8,29.99,SE,140,3.0,12.0,86,0.00,,---,0.00,0.00,VWS V14.01,2013-04-04 00:33:00,
2013-04-03 21:03:00,74.1,70.0,30.01,ESE,121,2.0,9.0,87,0.00,,---,0.00,0.00,VWS V14.01,2013-04-04 01:03:00,
2013-04-03 21:33:00,74.2,70.1,30.02,ESE,115,7.0,10.0,87,0.00,,---,0.00,0.00,VWS V14.01,2013-04-04 01:33:00,
2013-04-03 22:03:00,74.2,70.1,30.02,East,101,5.0,9.0,87,0.00,,---,0.00,0.00,VWS V14.01,2013-04-04 02:03:00,
2013-04-03 22:33:00,74.1,70.0,30.03,ESE,111,3.0,10.0,87,0.00,,---,0.00,0.00,VWS V14.01,2013-04-04 02:33:00,
2013-04-03 23:03:00,74.2,70.1,30.03,ESE,119,3.0,10.0,87,0.00,,---,0.00,0.00,VWS V14.01,2013-04-04 03:03:00,
2013-04-03 23:33:00,74.3,70.2,30.03,ESE,111,1.0,10.0,87,0.00,,---,0.00,0.00,VWS V14.01,2013-04-04 03:33:00,